sensor_id;sensor_type;location;lat;lon;timestamp;P1;durP1;ratioP1;P2;durP2;ratioP2
53497;SDS011;39382;47.168;16.008;2024-02-16T00:00:00;5.57;;;4.03;;
53497;SDS011;39382;47.168;16.008;2024-02-16T00:02:26;6.32;;;3.42;;
53497;SDS011;39382;47.168;16.008;2024-02-16T00:04:52;4.03;;;2.92;;
53497;SDS011;39382;47.168;16.008;2024-02-16T00:07:17;4.05;;;3.33;;
53497;SDS011;39382;47.168;16.008;2024-02-16T00:09:43;4.22;;;2.63;;
53497;SDS011;39382;47.168;16.008;2024-02-16T00:12:09;6.32;;;3.25;;
53497;SDS011;39382;47.168;16.008;2024-02-16T00:14:34;5.07;;;3.13;;
53497;SDS011;39382;47.168;16.008;2024-02-16T00:17:00;5.38;;;2.72;;
53497;SDS011;39382;47.168;16.008;2024-02-16T00:19:26;5.88;;;3.70;;
53497;SDS011;39382;47.168;16.008;2024-02-16T00:21:52;7.50;;;3.13;;
53497;SDS011;39382;47.168;16.008;2024-02-16T00:24:18;11.48;;;4.38;;
53497;SDS011;39382;47.168;16.008;2024-02-16T00:26:44;6.78;;;4.15;;
53497;SDS011;39382;47.168;16.008;2024-02-16T00:29:10;9.05;;;4.43;;
53497;SDS011;39382;47.168;16.008;2024-02-16T00:31:36;11.05;;;4.55;;
53497;SDS011;39382;47.168;16.008;2024-02-16T00:34:01;9.57;;;3.40;;
53497;SDS011;39382;47.168;16.008;2024-02-16T00:36:27;5.72;;;3.08;;
53497;SDS011;39382;47.168;16.008;2024-02-16T00:38:55;7.45;;;3.30;;
53497;SDS011;39382;47.168;16.008;2024-02-16T00:41:21;13.48;;;6.03;;
53497;SDS011;39382;47.168;16.008;2024-02-16T00:43:48;7.32;;;4.85;;
53497;SDS011;39382;47.168;16.008;2024-02-16T00:46:14;9.15;;;4.60;;
53497;SDS011;39382;47.168;16.008;2024-02-16T00:48:40;5.85;;;3.42;;
53497;SDS011;39382;47.168;16.008;2024-02-16T00:51:06;6.63;;;3.67;;
53497;SDS011;39382;47.168;16.008;2024-02-16T00:53:31;3.35;;;2.50;;
53497;SDS011;39382;47.168;16.008;2024-02-16T00:55:57;7.32;;;2.75;;
53497;SDS011;39382;47.168;16.008;2024-02-16T00:58:22;9.50;;;3.63;;
53497;SDS011;39382;47.168;16.008;2024-02-16T01:00:48;7.40;;;3.45;;
53497;SDS011;39382;47.168;16.008;2024-02-16T01:03:14;5.53;;;3.33;;
53497;SDS011;39382;47.168;16.008;2024-02-16T01:05:39;8.82;;;2.55;;
53497;SDS011;39382;47.168;16.008;2024-02-16T01:08:06;8.60;;;3.55;;
53497;SDS011;39382;47.168;16.008;2024-02-16T01:10:32;6.50;;;2.92;;
53497;SDS011;39382;47.168;16.008;2024-02-16T01:12:57;5.70;;;2.90;;
53497;SDS011;39382;47.168;16.008;2024-02-16T01:15:23;4.28;;;2.83;;
53497;SDS011;39382;47.168;16.008;2024-02-16T01:17:49;6.53;;;3.22;;
53497;SDS011;39382;47.168;16.008;2024-02-16T01:20:15;4.18;;;3.50;;
53497;SDS011;39382;47.168;16.008;2024-02-16T01:22:41;5.95;;;3.35;;
53497;SDS011;39382;47.168;16.008;2024-02-16T01:25:07;4.15;;;2.90;;
53497;SDS011;39382;47.168;16.008;2024-02-16T01:27:33;5.00;;;3.08;;
53497;SDS011;39382;47.168;16.008;2024-02-16T01:30:00;8.52;;;3.05;;
53497;SDS011;39382;47.168;16.008;2024-02-16T01:32:26;6.25;;;2.53;;
53497;SDS011;39382;47.168;16.008;2024-02-16T01:34:52;6.07;;;2.75;;
53497;SDS011;39382;47.168;16.008;2024-02-16T01:37:17;5.38;;;2.75;;
53497;SDS011;39382;47.168;16.008;2024-02-16T01:39:43;4.50;;;2.60;;
53497;SDS011;39382;47.168;16.008;2024-02-16T01:42:09;4.75;;;2.88;;
53497;SDS011;39382;47.168;16.008;2024-02-16T01:44:36;5.13;;;3.72;;
53497;SDS011;39382;47.168;16.008;2024-02-16T01:47:02;5.57;;;2.97;;
53497;SDS011;39382;47.168;16.008;2024-02-16T01:49:29;3.35;;;2.85;;
53497;SDS011;39382;47.168;16.008;2024-02-16T01:51:55;6.13;;;3.70;;
53497;SDS011;39382;47.168;16.008;2024-02-16T01:54:22;6.45;;;4.10;;
53497;SDS011;39382;47.168;16.008;2024-02-16T01:56:48;9.63;;;5.18;;
53497;SDS011;39382;47.168;16.008;2024-02-16T01:59:16;6.95;;;4.22;;
53497;SDS011;39382;47.168;16.008;2024-02-16T02:01:42;11.20;;;3.47;;
53497;SDS011;39382;47.168;16.008;2024-02-16T02:04:07;5.43;;;2.75;;
53497;SDS011;39382;47.168;16.008;2024-02-16T02:06:33;3.20;;;2.72;;
53497;SDS011;39382;47.168;16.008;2024-02-16T02:08:59;5.82;;;2.47;;
53497;SDS011;39382;47.168;16.008;2024-02-16T02:11:24;5.10;;;2.83;;
53497;SDS011;39382;47.168;16.008;2024-02-16T02:13:50;3.30;;;2.10;;
53497;SDS011;39382;47.168;16.008;2024-02-16T02:16:16;4.07;;;2.75;;
53497;SDS011;39382;47.168;16.008;2024-02-16T02:18:44;5.80;;;2.97;;
53497;SDS011;39382;47.168;16.008;2024-02-16T02:21:10;6.18;;;2.90;;
53497;SDS011;39382;47.168;16.008;2024-02-16T02:23:35;15.15;;;2.80;;
53497;SDS011;39382;47.168;16.008;2024-02-16T02:26:01;8.38;;;2.80;;
53497;SDS011;39382;47.168;16.008;2024-02-16T02:28:27;5.00;;;3.28;;
53497;SDS011;39382;47.168;16.008;2024-02-16T02:30:54;7.88;;;3.38;;
53497;SDS011;39382;47.168;16.008;2024-02-16T02:33:20;7.82;;;2.72;;
53497;SDS011;39382;47.168;16.008;2024-02-16T02:35:46;6.05;;;3.17;;
53497;SDS011;39382;47.168;16.008;2024-02-16T02:38:12;5.47;;;3.28;;
53497;SDS011;39382;47.168;16.008;2024-02-16T02:40:38;7.35;;;3.20;;
53497;SDS011;39382;47.168;16.008;2024-02-16T02:43:04;7.40;;;2.97;;
53497;SDS011;39382;47.168;16.008;2024-02-16T02:45:31;4.30;;;2.95;;
53497;SDS011;39382;47.168;16.008;2024-02-16T02:47:56;6.85;;;2.85;;
53497;SDS011;39382;47.168;16.008;2024-02-16T02:50:22;5.82;;;2.72;;
53497;SDS011;39382;47.168;16.008;2024-02-16T02:52:49;7.57;;;3.03;;
53497;SDS011;39382;47.168;16.008;2024-02-16T02:55:14;5.30;;;2.38;;
53497;SDS011;39382;47.168;16.008;2024-02-16T02:57:40;5.55;;;3.17;;
53497;SDS011;39382;47.168;16.008;2024-02-16T03:00:07;3.83;;;2.55;;
53497;SDS011;39382;47.168;16.008;2024-02-16T03:02:39;5.65;;;3.10;;
53497;SDS011;39382;47.168;16.008;2024-02-16T03:05:08;3.80;;;2.70;;
53497;SDS011;39382;47.168;16.008;2024-02-16T03:07:34;5.85;;;3.42;;
53497;SDS011;39382;47.168;16.008;2024-02-16T03:09:59;4.05;;;2.92;;
53497;SDS011;39382;47.168;16.008;2024-02-16T03:12:25;5.05;;;2.70;;
53497;SDS011;39382;47.168;16.008;2024-02-16T03:14:51;3.55;;;2.97;;
53497;SDS011;39382;47.168;16.008;2024-02-16T03:17:17;5.15;;;3.17;;
53497;SDS011;39382;47.168;16.008;2024-02-16T03:19:42;5.15;;;3.47;;
53497;SDS011;39382;47.168;16.008;2024-02-16T03:22:08;8.15;;;3.20;;
53497;SDS011;39382;47.168;16.008;2024-02-16T03:24:33;6.80;;;3.53;;
53497;SDS011;39382;47.168;16.008;2024-02-16T03:26:59;6.13;;;2.95;;
53497;SDS011;39382;47.168;16.008;2024-02-16T03:29:25;3.67;;;2.65;;
53497;SDS011;39382;47.168;16.008;2024-02-16T03:31:51;6.38;;;2.80;;
53497;SDS011;39382;47.168;16.008;2024-02-16T03:34:17;4.07;;;3.20;;
53497;SDS011;39382;47.168;16.008;2024-02-16T03:36:43;10.27;;;3.47;;
53497;SDS011;39382;47.168;16.008;2024-02-16T03:39:09;8.55;;;3.20;;
53497;SDS011;39382;47.168;16.008;2024-02-16T03:41:34;4.40;;;3.97;;
53497;SDS011;39382;47.168;16.008;2024-02-16T03:44:00;10.80;;;6.40;;
53497;SDS011;39382;47.168;16.008;2024-02-16T03:46:26;5.53;;;4.15;;
53497;SDS011;39382;47.168;16.008;2024-02-16T03:48:52;6.78;;;3.33;;
53497;SDS011;39382;47.168;16.008;2024-02-16T03:51:17;6.28;;;4.10;;
53497;SDS011;39382;47.168;16.008;2024-02-16T03:53:43;3.78;;;3.47;;
53497;SDS011;39382;47.168;16.008;2024-02-16T03:56:12;5.65;;;2.88;;
53497;SDS011;39382;47.168;16.008;2024-02-16T03:58:44;3.67;;;2.80;;
53497;SDS011;39382;47.168;16.008;2024-02-16T04:01:09;8.80;;;2.85;;
53497;SDS011;39382;47.168;16.008;2024-02-16T04:03:35;7.03;;;2.88;;
53497;SDS011;39382;47.168;16.008;2024-02-16T04:06:00;4.38;;;3.38;;
53497;SDS011;39382;47.168;16.008;2024-02-16T04:08:29;9.93;;;2.85;;
53497;SDS011;39382;47.168;16.008;2024-02-16T04:10:55;6.63;;;2.83;;
53497;SDS011;39382;47.168;16.008;2024-02-16T04:13:20;3.55;;;2.85;;
53497;SDS011;39382;47.168;16.008;2024-02-16T04:15:46;8.30;;;3.78;;
53497;SDS011;39382;47.168;16.008;2024-02-16T04:18:12;7.55;;;3.20;;
53497;SDS011;39382;47.168;16.008;2024-02-16T04:20:37;6.45;;;5.00;;
53497;SDS011;39382;47.168;16.008;2024-02-16T04:23:03;5.78;;;4.15;;
53497;SDS011;39382;47.168;16.008;2024-02-16T04:25:29;4.10;;;2.85;;
53497;SDS011;39382;47.168;16.008;2024-02-16T04:27:54;5.15;;;3.22;;
53497;SDS011;39382;47.168;16.008;2024-02-16T04:30:20;5.78;;;2.90;;
53497;SDS011;39382;47.168;16.008;2024-02-16T04:32:46;4.45;;;3.67;;
53497;SDS011;39382;47.168;16.008;2024-02-16T04:35:11;6.00;;;3.97;;
53497;SDS011;39382;47.168;16.008;2024-02-16T04:37:38;10.60;;;4.75;;
53497;SDS011;39382;47.168;16.008;2024-02-16T04:40:06;8.60;;;3.28;;
53497;SDS011;39382;47.168;16.008;2024-02-16T04:42:33;5.35;;;3.15;;
53497;SDS011;39382;47.168;16.008;2024-02-16T04:44:59;4.15;;;3.05;;
53497;SDS011;39382;47.168;16.008;2024-02-16T04:47:25;3.03;;;2.72;;
53497;SDS011;39382;47.168;16.008;2024-02-16T04:49:51;5.65;;;2.58;;
53497;SDS011;39382;47.168;16.008;2024-02-16T04:52:17;4.97;;;3.10;;
53497;SDS011;39382;47.168;16.008;2024-02-16T04:54:42;8.15;;;3.60;;
53497;SDS011;39382;47.168;16.008;2024-02-16T04:57:08;7.63;;;3.20;;
53497;SDS011;39382;47.168;16.008;2024-02-16T04:59:34;6.95;;;2.63;;
53497;SDS011;39382;47.168;16.008;2024-02-16T05:01:59;4.53;;;3.08;;
53497;SDS011;39382;47.168;16.008;2024-02-16T05:04:25;6.57;;;3.70;;
53497;SDS011;39382;47.168;16.008;2024-02-16T05:06:51;4.85;;;3.53;;
53497;SDS011;39382;47.168;16.008;2024-02-16T05:09:17;6.95;;;4.18;;
53497;SDS011;39382;47.168;16.008;2024-02-16T05:11:43;10.90;;;3.40;;
53497;SDS011;39382;47.168;16.008;2024-02-16T05:14:10;5.68;;;4.20;;
53497;SDS011;39382;47.168;16.008;2024-02-16T05:16:45;6.82;;;3.35;;
53497;SDS011;39382;47.168;16.008;2024-02-16T05:19:11;3.83;;;2.92;;
53497;SDS011;39382;47.168;16.008;2024-02-16T05:21:37;5.38;;;2.72;;
53497;SDS011;39382;47.168;16.008;2024-02-16T05:24:03;5.93;;;3.25;;
53497;SDS011;39382;47.168;16.008;2024-02-16T05:26:29;8.55;;;3.70;;
53497;SDS011;39382;47.168;16.008;2024-02-16T05:28:54;8.90;;;4.20;;
53497;SDS011;39382;47.168;16.008;2024-02-16T05:31:20;4.97;;;2.85;;
53497;SDS011;39382;47.168;16.008;2024-02-16T05:33:47;11.80;;;4.13;;
53497;SDS011;39382;47.168;16.008;2024-02-16T05:36:20;7.35;;;5.45;;
53497;SDS011;39382;47.168;16.008;2024-02-16T05:38:49;7.55;;;4.97;;
53497;SDS011;39382;47.168;16.008;2024-02-16T05:41:16;9.43;;;5.13;;
53497;SDS011;39382;47.168;16.008;2024-02-16T05:43:43;7.35;;;4.15;;
53497;SDS011;39382;47.168;16.008;2024-02-16T05:46:15;9.82;;;4.10;;
53497;SDS011;39382;47.168;16.008;2024-02-16T05:48:42;13.32;;;4.93;;
53497;SDS011;39382;47.168;16.008;2024-02-16T05:51:09;7.60;;;4.63;;
53497;SDS011;39382;47.168;16.008;2024-02-16T05:53:37;7.43;;;4.18;;
53497;SDS011;39382;47.168;16.008;2024-02-16T05:56:03;6.45;;;3.53;;
53497;SDS011;39382;47.168;16.008;2024-02-16T05:58:30;5.03;;;3.00;;
53497;SDS011;39382;47.168;16.008;2024-02-16T06:00:55;6.18;;;3.83;;
53497;SDS011;39382;47.168;16.008;2024-02-16T06:03:22;9.55;;;4.28;;
53497;SDS011;39382;47.168;16.008;2024-02-16T06:05:49;3.67;;;2.53;;
53497;SDS011;39382;47.168;16.008;2024-02-16T06:08:15;5.43;;;3.35;;
53497;SDS011;39382;47.168;16.008;2024-02-16T06:10:42;5.82;;;3.97;;
53497;SDS011;39382;47.168;16.008;2024-02-16T06:13:08;7.32;;;4.25;;
53497;SDS011;39382;47.168;16.008;2024-02-16T06:15:34;5.47;;;4.22;;
53497;SDS011;39382;47.168;16.008;2024-02-16T06:18:00;10.98;;;4.45;;
53497;SDS011;39382;47.168;16.008;2024-02-16T06:20:26;14.50;;;5.25;;
53497;SDS011;39382;47.168;16.008;2024-02-16T06:22:52;8.18;;;4.38;;
53497;SDS011;39382;47.168;16.008;2024-02-16T06:25:17;5.45;;;3.53;;
53497;SDS011;39382;47.168;16.008;2024-02-16T06:27:44;7.03;;;3.47;;
53497;SDS011;39382;47.168;16.008;2024-02-16T06:30:09;9.00;;;3.75;;
53497;SDS011;39382;47.168;16.008;2024-02-16T06:32:38;9.23;;;3.85;;
53497;SDS011;39382;47.168;16.008;2024-02-16T06:35:06;7.65;;;4.05;;
53497;SDS011;39382;47.168;16.008;2024-02-16T06:37:32;5.70;;;4.68;;
53497;SDS011;39382;47.168;16.008;2024-02-16T06:39:58;13.50;;;5.55;;
53497;SDS011;39382;47.168;16.008;2024-02-16T06:42:24;14.88;;;6.30;;
53497;SDS011;39382;47.168;16.008;2024-02-16T06:44:50;11.55;;;5.65;;
53497;SDS011;39382;47.168;16.008;2024-02-16T06:47:15;5.15;;;3.25;;
53497;SDS011;39382;47.168;16.008;2024-02-16T06:49:41;8.60;;;3.22;;
53497;SDS011;39382;47.168;16.008;2024-02-16T06:52:06;8.98;;;4.28;;
53497;SDS011;39382;47.168;16.008;2024-02-16T06:54:34;11.27;;;4.75;;
53497;SDS011;39382;47.168;16.008;2024-02-16T06:57:00;11.95;;;4.70;;
53497;SDS011;39382;47.168;16.008;2024-02-16T06:59:26;9.45;;;4.57;;
53497;SDS011;39382;47.168;16.008;2024-02-16T07:01:52;5.72;;;3.80;;
53497;SDS011;39382;47.168;16.008;2024-02-16T07:04:18;8.57;;;4.93;;
53497;SDS011;39382;47.168;16.008;2024-02-16T07:06:43;7.05;;;3.90;;
53497;SDS011;39382;47.168;16.008;2024-02-16T07:09:09;5.88;;;4.20;;
53497;SDS011;39382;47.168;16.008;2024-02-16T07:11:35;8.70;;;5.22;;
53497;SDS011;39382;47.168;16.008;2024-02-16T07:14:00;8.57;;;4.88;;
53497;SDS011;39382;47.168;16.008;2024-02-16T07:16:27;9.77;;;5.43;;
53497;SDS011;39382;47.168;16.008;2024-02-16T07:18:53;11.73;;;4.72;;
53497;SDS011;39382;47.168;16.008;2024-02-16T07:21:19;12.68;;;5.82;;
53497;SDS011;39382;47.168;16.008;2024-02-16T07:23:47;10.65;;;5.80;;
53497;SDS011;39382;47.168;16.008;2024-02-16T07:26:13;10.80;;;6.07;;
53497;SDS011;39382;47.168;16.008;2024-02-16T07:28:39;10.55;;;5.88;;
53497;SDS011;39382;47.168;16.008;2024-02-16T07:31:05;13.35;;;6.07;;
53497;SDS011;39382;47.168;16.008;2024-02-16T07:33:31;11.00;;;5.82;;
53497;SDS011;39382;47.168;16.008;2024-02-16T07:35:56;11.32;;;5.68;;
53497;SDS011;39382;47.168;16.008;2024-02-16T07:38:22;10.85;;;4.93;;
53497;SDS011;39382;47.168;16.008;2024-02-16T07:40:48;12.48;;;6.97;;
53497;SDS011;39382;47.168;16.008;2024-02-16T07:43:15;9.63;;;5.30;;
53497;SDS011;39382;47.168;16.008;2024-02-16T07:45:41;7.70;;;5.07;;
53497;SDS011;39382;47.168;16.008;2024-02-16T07:48:07;23.13;;;9.10;;
53497;SDS011;39382;47.168;16.008;2024-02-16T07:50:32;17.90;;;8.10;;
53497;SDS011;39382;47.168;16.008;2024-02-16T07:52:58;18.02;;;7.45;;
53497;SDS011;39382;47.168;16.008;2024-02-16T07:55:24;21.98;;;9.77;;
53497;SDS011;39382;47.168;16.008;2024-02-16T07:57:53;21.90;;;9.82;;
53497;SDS011;39382;47.168;16.008;2024-02-16T08:00:18;10.98;;;6.28;;
53497;SDS011;39382;47.168;16.008;2024-02-16T08:02:45;8.10;;;5.05;;
53497;SDS011;39382;47.168;16.008;2024-02-16T08:05:11;12.27;;;4.93;;
53497;SDS011;39382;47.168;16.008;2024-02-16T08:07:41;8.65;;;5.10;;
53497;SDS011;39382;47.168;16.008;2024-02-16T08:10:07;11.55;;;5.82;;
53497;SDS011;39382;47.168;16.008;2024-02-16T08:12:33;10.00;;;5.55;;
53497;SDS011;39382;47.168;16.008;2024-02-16T08:15:00;11.15;;;5.55;;
53497;SDS011;39382;47.168;16.008;2024-02-16T08:17:32;8.68;;;4.80;;
53497;SDS011;39382;47.168;16.008;2024-02-16T08:19:58;7.43;;;5.05;;
53497;SDS011;39382;47.168;16.008;2024-02-16T08:22:24;9.73;;;6.07;;
53497;SDS011;39382;47.168;16.008;2024-02-16T08:24:49;11.88;;;4.25;;
53497;SDS011;39382;47.168;16.008;2024-02-16T08:27:15;9.43;;;5.30;;
53497;SDS011;39382;47.168;16.008;2024-02-16T08:29:42;7.78;;;5.20;;
53497;SDS011;39382;47.168;16.008;2024-02-16T08:32:08;14.40;;;5.97;;
53497;SDS011;39382;47.168;16.008;2024-02-16T08:34:34;7.38;;;5.60;;
53497;SDS011;39382;47.168;16.008;2024-02-16T08:37:02;9.13;;;5.70;;
53497;SDS011;39382;47.168;16.008;2024-02-16T08:39:29;9.20;;;6.25;;
53497;SDS011;39382;47.168;16.008;2024-02-16T08:41:55;12.68;;;5.15;;
53497;SDS011;39382;47.168;16.008;2024-02-16T08:44:22;9.30;;;6.20;;
53497;SDS011;39382;47.168;16.008;2024-02-16T08:46:47;14.50;;;5.88;;
53497;SDS011;39382;47.168;16.008;2024-02-16T08:49:14;13.65;;;5.50;;
53497;SDS011;39382;47.168;16.008;2024-02-16T08:51:41;18.10;;;7.60;;
53497;SDS011;39382;47.168;16.008;2024-02-16T08:54:07;10.40;;;6.30;;
53497;SDS011;39382;47.168;16.008;2024-02-16T08:56:33;11.55;;;6.47;;
53497;SDS011;39382;47.168;16.008;2024-02-16T08:59:01;10.63;;;5.90;;
53497;SDS011;39382;47.168;16.008;2024-02-16T09:01:31;10.68;;;5.03;;
53497;SDS011;39382;47.168;16.008;2024-02-16T09:04:01;15.23;;;5.03;;
53497;SDS011;39382;47.168;16.008;2024-02-16T09:06:27;10.18;;;5.55;;
53497;SDS011;39382;47.168;16.008;2024-02-16T09:08:53;12.48;;;6.13;;
53497;SDS011;39382;47.168;16.008;2024-02-16T09:11:19;13.32;;;7.22;;
53497;SDS011;39382;47.168;16.008;2024-02-16T09:13:45;18.92;;;9.90;;
53497;SDS011;39382;47.168;16.008;2024-02-16T09:16:11;11.73;;;8.13;;
53497;SDS011;39382;47.168;16.008;2024-02-16T09:18:37;14.45;;;6.57;;
53497;SDS011;39382;47.168;16.008;2024-02-16T09:21:06;12.65;;;7.47;;
53497;SDS011;39382;47.168;16.008;2024-02-16T09:23:32;14.35;;;7.20;;
53497;SDS011;39382;47.168;16.008;2024-02-16T09:25:58;16.65;;;8.48;;
53497;SDS011;39382;47.168;16.008;2024-02-16T09:28:24;11.25;;;6.65;;
53497;SDS011;39382;47.168;16.008;2024-02-16T09:30:51;17.67;;;7.75;;
53497;SDS011;39382;47.168;16.008;2024-02-16T09:33:17;12.90;;;8.02;;
53497;SDS011;39382;47.168;16.008;2024-02-16T09:35:43;12.95;;;8.20;;
53497;SDS011;39382;47.168;16.008;2024-02-16T09:38:08;12.02;;;7.55;;
53497;SDS011;39382;47.168;16.008;2024-02-16T09:40:35;13.98;;;7.80;;
53497;SDS011;39382;47.168;16.008;2024-02-16T09:43:01;13.10;;;8.65;;
53497;SDS011;39382;47.168;16.008;2024-02-16T09:45:28;15.98;;;8.70;;
53497;SDS011;39382;47.168;16.008;2024-02-16T09:47:55;16.73;;;10.30;;
53497;SDS011;39382;47.168;16.008;2024-02-16T09:50:22;18.73;;;10.90;;
53497;SDS011;39382;47.168;16.008;2024-02-16T09:52:49;10.82;;;7.32;;
53497;SDS011;39382;47.168;16.008;2024-02-16T09:55:16;18.50;;;9.13;;
53497;SDS011;39382;47.168;16.008;2024-02-16T09:57:42;15.55;;;9.43;;
53497;SDS011;39382;47.168;16.008;2024-02-16T10:00:12;14.63;;;7.82;;
53497;SDS011;39382;47.168;16.008;2024-02-16T10:02:45;9.70;;;6.30;;
53497;SDS011;39382;47.168;16.008;2024-02-16T10:07:38;9.05;;;6.22;;
53497;SDS011;39382;47.168;16.008;2024-02-16T10:10:05;11.25;;;8.07;;
53497;SDS011;39382;47.168;16.008;2024-02-16T10:12:31;13.75;;;9.30;;
53497;SDS011;39382;47.168;16.008;2024-02-16T10:14:56;12.55;;;7.38;;
53497;SDS011;39382;47.168;16.008;2024-02-16T10:17:24;15.32;;;7.18;;
53497;SDS011;39382;47.168;16.008;2024-02-16T10:20:00;14.18;;;6.53;;
53497;SDS011;39382;47.168;16.008;2024-02-16T10:22:31;7.72;;;6.07;;
53497;SDS011;39382;47.168;16.008;2024-02-16T10:25:06;11.35;;;6.82;;
53497;SDS011;39382;47.168;16.008;2024-02-16T10:27:36;7.93;;;5.43;;
53497;SDS011;39382;47.168;16.008;2024-02-16T10:30:02;10.07;;;6.90;;
53497;SDS011;39382;47.168;16.008;2024-02-16T10:32:35;13.88;;;6.78;;
53497;SDS011;39382;47.168;16.008;2024-02-16T10:35:04;9.65;;;5.68;;
53497;SDS011;39382;47.168;16.008;2024-02-16T10:37:34;9.80;;;6.20;;
53497;SDS011;39382;47.168;16.008;2024-02-16T10:39:59;10.82;;;5.45;;
53497;SDS011;39382;47.168;16.008;2024-02-16T10:42:27;7.68;;;5.55;;
53497;SDS011;39382;47.168;16.008;2024-02-16T10:44:54;9.88;;;5.00;;
53497;SDS011;39382;47.168;16.008;2024-02-16T10:47:20;7.60;;;4.53;;
53497;SDS011;39382;47.168;16.008;2024-02-16T10:49:46;8.52;;;4.47;;
53497;SDS011;39382;47.168;16.008;2024-02-16T10:52:12;10.43;;;4.60;;
53497;SDS011;39382;47.168;16.008;2024-02-16T10:54:39;6.25;;;4.65;;
53497;SDS011;39382;47.168;16.008;2024-02-16T10:57:08;5.68;;;4.05;;
53497;SDS011;39382;47.168;16.008;2024-02-16T10:59:44;5.97;;;4.57;;
53497;SDS011;39382;47.168;16.008;2024-02-16T11:02:11;10.63;;;4.15;;
53497;SDS011;39382;47.168;16.008;2024-02-16T11:04:37;8.27;;;3.92;;
53497;SDS011;39382;47.168;16.008;2024-02-16T11:07:10;7.07;;;3.85;;
53497;SDS011;39382;47.168;16.008;2024-02-16T11:09:38;11.20;;;4.53;;
53497;SDS011;39382;47.168;16.008;2024-02-16T11:12:05;13.27;;;6.68;;
53497;SDS011;39382;47.168;16.008;2024-02-16T11:14:40;10.70;;;5.45;;
53497;SDS011;39382;47.168;16.008;2024-02-16T11:17:10;11.75;;;6.10;;
53497;SDS011;39382;47.168;16.008;2024-02-16T11:19:44;9.45;;;5.55;;
53497;SDS011;39382;47.168;16.008;2024-02-16T11:22:10;6.00;;;2.83;;
53497;SDS011;39382;47.168;16.008;2024-02-16T11:24:42;6.80;;;3.78;;
53497;SDS011;39382;47.168;16.008;2024-02-16T11:27:10;4.10;;;3.40;;
53497;SDS011;39382;47.168;16.008;2024-02-16T11:29:37;10.32;;;5.47;;
53497;SDS011;39382;47.168;16.008;2024-02-16T11:32:06;5.25;;;2.97;;
53497;SDS011;39382;47.168;16.008;2024-02-16T11:34:33;6.40;;;3.38;;
53497;SDS011;39382;47.168;16.008;2024-02-16T11:37:00;6.38;;;2.78;;
53497;SDS011;39382;47.168;16.008;2024-02-16T11:39:27;3.40;;;3.00;;
53497;SDS011;39382;47.168;16.008;2024-02-16T11:42:06;3.25;;;2.50;;
53497;SDS011;39382;47.168;16.008;2024-02-16T11:44:37;3.95;;;2.60;;
53497;SDS011;39382;47.168;16.008;2024-02-16T11:47:05;3.70;;;2.55;;
53497;SDS011;39382;47.168;16.008;2024-02-16T11:49:40;3.22;;;2.30;;
53497;SDS011;39382;47.168;16.008;2024-02-16T11:52:06;3.78;;;2.47;;
53497;SDS011;39382;47.168;16.008;2024-02-16T11:54:32;4.20;;;2.78;;
53497;SDS011;39382;47.168;16.008;2024-02-16T11:56:58;3.30;;;2.42;;
53497;SDS011;39382;47.168;16.008;2024-02-16T11:59:24;4.55;;;2.03;;
53497;SDS011;39382;47.168;16.008;2024-02-16T12:01:51;3.10;;;2.30;;
53497;SDS011;39382;47.168;16.008;2024-02-16T12:04:24;4.18;;;2.83;;
53497;SDS011;39382;47.168;16.008;2024-02-16T12:06:58;6.18;;;3.25;;
53497;SDS011;39382;47.168;16.008;2024-02-16T12:09:25;4.75;;;2.78;;
53497;SDS011;39382;47.168;16.008;2024-02-16T12:11:52;5.68;;;4.20;;
53497;SDS011;39382;47.168;16.008;2024-02-16T12:14:19;6.85;;;4.43;;
53497;SDS011;39382;47.168;16.008;2024-02-16T12:16:47;2.63;;;2.20;;
53497;SDS011;39382;47.168;16.008;2024-02-16T12:19:14;3.00;;;2.40;;
53497;SDS011;39382;47.168;16.008;2024-02-16T12:21:43;2.60;;;2.30;;
53497;SDS011;39382;47.168;16.008;2024-02-16T12:24:08;2.80;;;2.45;;
53497;SDS011;39382;47.168;16.008;2024-02-16T12:26:35;4.72;;;2.15;;
53497;SDS011;39382;47.168;16.008;2024-02-16T12:29:01;4.78;;;2.88;;
53497;SDS011;39382;47.168;16.008;2024-02-16T12:31:27;6.32;;;2.95;;
53497;SDS011;39382;47.168;16.008;2024-02-16T12:33:52;4.25;;;2.42;;
53497;SDS011;39382;47.168;16.008;2024-02-16T12:36:18;7.00;;;4.07;;
53497;SDS011;39382;47.168;16.008;2024-02-16T12:38:44;4.22;;;2.55;;
53497;SDS011;39382;47.168;16.008;2024-02-16T12:41:10;2.42;;;2.17;;
53497;SDS011;39382;47.168;16.008;2024-02-16T12:43:35;5.28;;;2.65;;
53497;SDS011;39382;47.168;16.008;2024-02-16T12:46:01;6.03;;;2.78;;
53497;SDS011;39382;47.168;16.008;2024-02-16T12:48:29;4.05;;;2.20;;
53497;SDS011;39382;47.168;16.008;2024-02-16T12:50:55;4.00;;;3.58;;
53497;SDS011;39382;47.168;16.008;2024-02-16T12:53:22;5.55;;;3.40;;
53497;SDS011;39382;47.168;16.008;2024-02-16T12:55:49;9.57;;;5.50;;
53497;SDS011;39382;47.168;16.008;2024-02-16T12:58:15;7.90;;;2.78;;
53497;SDS011;39382;47.168;16.008;2024-02-16T13:00:41;5.15;;;3.10;;
53497;SDS011;39382;47.168;16.008;2024-02-16T13:03:07;7.07;;;3.70;;
53497;SDS011;39382;47.168;16.008;2024-02-16T13:05:33;6.90;;;4.32;;
53497;SDS011;39382;47.168;16.008;2024-02-16T13:07:58;2.80;;;2.50;;
53497;SDS011;39382;47.168;16.008;2024-02-16T13:10:25;5.57;;;3.38;;
53497;SDS011;39382;47.168;16.008;2024-02-16T13:12:50;4.50;;;2.40;;
53497;SDS011;39382;47.168;16.008;2024-02-16T13:15:16;5.75;;;2.80;;
53497;SDS011;39382;47.168;16.008;2024-02-16T13:17:41;3.75;;;2.67;;
53497;SDS011;39382;47.168;16.008;2024-02-16T13:20:07;4.10;;;3.00;;
53497;SDS011;39382;47.168;16.008;2024-02-16T13:22:35;3.20;;;2.50;;
53497;SDS011;39382;47.168;16.008;2024-02-16T13:25:02;7.05;;;2.28;;
53497;SDS011;39382;47.168;16.008;2024-02-16T13:27:29;7.57;;;3.20;;
53497;SDS011;39382;47.168;16.008;2024-02-16T13:29:54;4.35;;;2.15;;
53497;SDS011;39382;47.168;16.008;2024-02-16T13:32:20;3.38;;;1.88;;
53497;SDS011;39382;47.168;16.008;2024-02-16T13:34:46;6.57;;;4.15;;
53497;SDS011;39382;47.168;16.008;2024-02-16T13:37:12;2.45;;;1.92;;
53497;SDS011;39382;47.168;16.008;2024-02-16T13:39:38;4.22;;;1.83;;
53497;SDS011;39382;47.168;16.008;2024-02-16T13:42:04;2.92;;;2.05;;
53497;SDS011;39382;47.168;16.008;2024-02-16T13:44:30;3.58;;;2.60;;
53497;SDS011;39382;47.168;16.008;2024-02-16T13:46:57;9.68;;;5.50;;
53497;SDS011;39382;47.168;16.008;2024-02-16T13:49:23;11.18;;;6.68;;
53497;SDS011;39382;47.168;16.008;2024-02-16T13:51:48;1.67;;;1.58;;
53497;SDS011;39382;47.168;16.008;2024-02-16T13:54:14;3.88;;;2.90;;
53497;SDS011;39382;47.168;16.008;2024-02-16T13:56:40;5.22;;;4.72;;
53497;SDS011;39382;47.168;16.008;2024-02-16T13:59:06;18.40;;;8.45;;
53497;SDS011;39382;47.168;16.008;2024-02-16T14:01:32;21.73;;;14.10;;
53497;SDS011;39382;47.168;16.008;2024-02-16T14:03:59;13.95;;;7.88;;
53497;SDS011;39382;47.168;16.008;2024-02-16T14:06:25;6.72;;;4.50;;
53497;SDS011;39382;47.168;16.008;2024-02-16T14:08:50;4.60;;;2.80;;
53497;SDS011;39382;47.168;16.008;2024-02-16T14:11:18;6.35;;;4.75;;
53497;SDS011;39382;47.168;16.008;2024-02-16T14:13:44;2.85;;;2.55;;
53497;SDS011;39382;47.168;16.008;2024-02-16T14:16:09;13.50;;;6.55;;
53497;SDS011;39382;47.168;16.008;2024-02-16T14:18:35;4.93;;;3.50;;
53497;SDS011;39382;47.168;16.008;2024-02-16T14:21:02;4.90;;;3.50;;
53497;SDS011;39382;47.168;16.008;2024-02-16T14:23:31;2.50;;;2.30;;
53497;SDS011;39382;47.168;16.008;2024-02-16T14:25:57;2.55;;;2.35;;
53497;SDS011;39382;47.168;16.008;2024-02-16T14:28:23;11.25;;;8.10;;